Aeroporto :







RITROVATECI SU...

 
LOGIN :

Iscrizione | Disclaimer

   EN    FR    IT 

 









Sommario :    VFR   VFR Marginale   IFR   IFR Intensivo   IFR Molto Intensivo
Visibilità : 
Base nubi : 
>= 8 km
>= 3000ft
5 / 8 km
1000 / 3000 ft
1500m / 5 km
500 / 1000 ft
800 / 1500m
200 / 500 ft
< 800m
< 200 ft
Simboli :   Temporali  Nebbia  Neve Forte  Precipitazioni Forti  Vento > 20 kt






- Altitudine del aeroporto : 9 ft
- Codice IATA : SJU


TJSJ - Luis Munoz Marin Int.

ULTIMO METAR :
  • 132356Z 06010KT 10SM SCT028 SCT055 29/26 A2994 RMK AO2 SLP138 T02890256 10322 20289 53008

METARs OBSOLETI :
  • 132256Z 07011KT 10SM FEW031 SCT050 SCT090 29/25 A2993 RMK AO2 SLP135 T02940250
  • 132156Z 07014KT 10SM FEW033 FEW050 SCT090 30/24 A2993 RMK AO2 SLP133 T03000239

TAF TJSJ
Valido dal 14 a 00 ore il 15 a 00 ore UTC


132340Z 1400/1424 08009KT P6SM VCSH FEW030 SCT050
FM141300 08017KT P6SM FEW030 SCT050
FM142300 07010KT P6SM FEW030
FIR TJZS / America del Nord



MetMap, La meteo Aeronautica in un colpo d'occhio ! - Copyright ORBIFLY Dicembre 2007 - Disclaimer

ORBIFLY MET'MAP TEAM :

Programmazione e sviluppo : Alexandra Zaïnal
Concezione : Baudouin d'Aumeries
Aiuto per la programmazione : Marc-Olivier Méhu
Supporto tecnico e logistico : Manuel Goepfert
Aiuto per la traduzione : Arnaldo La Scala

Contatto : metmap@orbifly.com




FONTI E CREDITI :

   NOAA